createdAt,value
2023-01-11T00:02:13.424Z,8.57
2023-01-11T00:04:40.909Z,8.73
2023-01-11T00:07:10.833Z,8.55
2023-01-11T00:09:38.309Z,7.43
2023-01-11T00:12:06.090Z,8.27
2023-01-11T00:14:33.553Z,7.60
2023-01-11T00:17:01.377Z,7.47
2023-01-11T00:19:28.788Z,8.35
2023-01-11T00:21:56.528Z,8.63
2023-01-11T00:24:23.949Z,7.22
2023-01-11T00:26:51.672Z,7.60
2023-01-11T00:29:19.096Z,7.18
2023-01-11T00:31:46.811Z,6.90
2023-01-11T00:34:14.242Z,7.07
2023-01-11T00:36:41.974Z,7.50
2023-01-11T00:39:09.437Z,7.38
2023-01-11T00:41:37.146Z,7.38
2023-01-11T00:44:04.910Z,7.18
2023-01-11T00:46:32.772Z,9.25
2023-01-11T00:49:00.192Z,7.25
2023-01-11T00:51:30.623Z,6.88
2023-01-11T00:53:59.905Z,7.20
2023-01-11T00:56:27.708Z,6.55
2023-01-11T00:58:55.268Z,6.63
2023-01-11T01:01:22.994Z,7.18
2023-01-11T01:03:50.381Z,5.65
2023-01-11T01:06:18.093Z,6.63
2023-01-11T01:08:45.514Z,7.72
2023-01-11T01:11:13.344Z,9.13
2023-01-11T01:13:40.812Z,6.10
2023-01-11T01:16:08.688Z,5.47
2023-01-11T01:18:36.089Z,5.60
2023-01-11T01:21:03.803Z,5.53
2023-01-11T01:23:31.185Z,5.35
2023-01-11T01:26:03.417Z,5.35
2023-01-11T01:42:57.300Z,5.30
2023-01-11T01:54:17.346Z,4.95
2023-01-11T01:56:48.064Z,5.40
2023-01-11T01:59:16.750Z,5.50
2023-01-11T02:01:45.257Z,6.95
2023-01-11T02:04:19.470Z,7.10
2023-01-11T02:06:47.604Z,8.68
2023-01-11T02:09:17.816Z,8.35
2023-01-11T02:11:45.532Z,7.47
2023-01-11T02:14:15.318Z,7.40
2023-01-11T02:16:43.046Z,7.45
2023-01-11T02:19:14.065Z,6.22
2023-01-11T02:21:47.491Z,6.18
2023-01-11T02:24:32.999Z,6.40
2023-01-11T02:27:11.127Z,6.25
2023-01-11T02:29:38.464Z,5.00
2023-01-11T02:32:15.036Z,5.45
2023-01-11T02:34:45.666Z,4.13
2023-01-11T02:37:16.484Z,4.20
2023-01-11T02:40:16.262Z,4.43
2023-01-11T02:42:50.069Z,4.70
2023-01-11T02:45:29.452Z,5.00
2023-01-11T02:48:15.863Z,4.60
2023-01-11T02:50:43.264Z,5.15
2023-01-11T02:53:13.946Z,5.43
2023-01-11T02:55:43.199Z,6.03
2023-01-11T02:58:11.876Z,5.53
2023-01-11T03:00:40.315Z,6.10
2023-01-11T03:03:18.626Z,6.70
2023-01-11T03:06:12.016Z,5.55
2023-01-11T03:08:51.882Z,6.10
2023-01-11T03:11:48.486Z,6.35
2023-01-11T03:14:19.014Z,6.20
2023-01-11T03:17:04.802Z,5.15
2023-01-11T03:19:39.554Z,5.38
2023-01-11T03:22:11.605Z,6.15
2023-01-11T03:27:06.329Z,6.55
2023-01-11T03:29:37.299Z,7.35
2023-01-11T03:32:11.056Z,8.63
2023-01-11T03:34:47.884Z,9.10
2023-01-11T03:37:15.197Z,10.57
2023-01-11T03:39:45.004Z,9.30
2023-01-11T03:42:13.967Z,8.63
2023-01-11T03:44:45.853Z,9.13
2023-01-11T03:47:14.950Z,8.80
2023-01-11T03:49:48.036Z,7.90
2023-01-11T03:52:16.522Z,8.50
2023-01-11T03:54:44.311Z,7.95
2023-01-11T03:57:33.965Z,7.30
2023-01-11T04:00:01.874Z,7.13
2023-01-11T04:02:46.756Z,8.80
2023-01-11T04:05:14.842Z,7.65
2023-01-11T04:07:42.176Z,8.88
2023-01-11T04:10:10.121Z,9.05
2023-01-11T04:12:37.516Z,9.80
2023-01-11T04:15:05.298Z,9.32
2023-01-11T04:17:32.636Z,7.85
2023-01-11T04:20:00.261Z,7.93
2023-01-11T04:22:27.689Z,7.20
2023-01-11T04:24:55.279Z,6.57
2023-01-11T04:27:22.581Z,6.25
2023-01-11T04:29:49.877Z,5.32
2023-01-11T04:32:17.544Z,5.30
2023-01-11T04:34:44.893Z,4.30
2023-01-11T04:37:12.578Z,5.57
2023-01-11T04:39:39.986Z,6.07
2023-01-11T04:42:07.629Z,5.63
2023-01-11T04:44:35.036Z,5.60
2023-01-11T04:47:02.628Z,5.13
2023-01-11T04:49:30.003Z,4.97
2023-01-11T04:51:57.718Z,5.55
2023-01-11T04:54:25.085Z,5.03
2023-01-11T04:56:52.812Z,4.90
2023-01-11T04:59:20.170Z,5.00
2023-01-11T05:01:47.839Z,4.65
2023-01-11T05:04:15.291Z,4.72
2023-01-11T05:06:42.995Z,4.38
2023-01-11T05:09:15.015Z,4.88
2023-01-11T05:14:09.851Z,5.53
2023-01-11T05:16:37.646Z,5.55
2023-01-11T05:19:05.473Z,5.30
2023-01-11T05:21:34.416Z,6.22
2023-01-11T05:24:03.458Z,6.50
2023-01-11T05:26:34.624Z,5.68
2023-01-11T05:29:03.619Z,5.80
2023-01-11T05:31:31.486Z,5.63
2023-01-11T05:33:59.315Z,4.88
2023-01-11T05:36:27.435Z,5.80
2023-01-11T05:38:55.482Z,5.47
2023-01-11T05:41:24.102Z,4.60
2023-01-11T05:43:51.821Z,4.85
2023-01-11T05:46:19.527Z,4.30
2023-01-11T05:48:46.849Z,4.00
2023-01-11T05:51:14.533Z,3.60
2023-01-11T05:53:42.053Z,3.50
2023-01-11T05:56:09.787Z,4.20
2023-01-11T05:58:37.217Z,3.72
2023-01-11T06:01:06.211Z,3.78
2023-01-11T06:03:33.723Z,3.40
2023-01-11T06:06:01.398Z,4.40
2023-01-11T06:08:28.857Z,3.92
2023-01-11T06:10:57.059Z,3.15
2023-01-11T06:13:25.083Z,3.05
2023-01-11T06:15:59.942Z,3.17
2023-01-11T06:18:28.043Z,2.58
2023-01-11T06:20:56.037Z,3.20
2023-01-11T06:23:23.667Z,3.08
2023-01-11T06:25:51.518Z,3.00
2023-01-11T06:28:19.063Z,2.42
2023-01-11T06:30:53.245Z,2.75
2023-01-11T06:33:21.354Z,2.28
2023-01-11T06:35:48.977Z,2.72
2023-01-11T06:38:17.175Z,3.03
2023-01-11T06:40:51.090Z,2.72
2023-01-11T06:43:18.577Z,2.35
2023-01-11T06:45:46.244Z,2.95
2023-01-11T06:48:13.601Z,2.67
2023-01-11T06:50:41.318Z,3.33
2023-01-11T06:53:09.228Z,3.50
2023-01-11T06:55:36.953Z,3.00
2023-01-11T06:58:04.288Z,3.30
2023-01-11T07:00:32.094Z,3.30
2023-01-11T07:06:11.951Z,3.90
2023-01-11T07:08:39.307Z,4.00
2023-01-11T07:11:07.016Z,3.53
2023-01-11T07:13:34.404Z,3.90
2023-01-11T07:16:02.177Z,3.85
2023-01-11T07:18:29.661Z,2.80
2023-01-11T07:20:57.304Z,3.10
2023-01-11T07:23:24.656Z,2.63
2023-01-11T07:25:52.343Z,2.20
2023-01-11T07:28:19.804Z,2.70
2023-01-11T07:30:58.223Z,1.90
2023-01-11T07:33:26.694Z,2.10
2023-01-11T07:35:54.777Z,1.98
2023-01-11T07:38:22.729Z,2.10
2023-01-11T07:40:50.419Z,2.30
2023-01-11T07:46:50.114Z,2.90
2023-01-11T07:49:17.920Z,2.20
2023-01-11T07:51:45.255Z,2.38
2023-01-11T07:54:13.015Z,3.00
2023-01-11T07:56:40.373Z,2.97
2023-01-11T07:59:08.603Z,3.67
2023-01-11T08:01:35.979Z,4.82
2023-01-11T08:04:03.758Z,4.43
2023-01-11T08:06:32.034Z,4.45
2023-01-11T08:09:02.547Z,4.33
2023-01-11T08:11:30.273Z,3.97
2023-01-11T08:13:57.890Z,3.83
2023-01-11T08:16:25.974Z,3.53
2023-01-11T08:18:53.800Z,2.95
2023-01-11T08:21:21.209Z,2.78
2023-01-11T08:23:48.964Z,2.75
2023-01-11T08:26:16.318Z,3.33
2023-01-11T08:28:44.228Z,2.92
2023-01-11T08:31:11.659Z,2.63
2023-01-11T08:33:39.327Z,2.75
2023-01-11T08:36:07.569Z,2.60
2023-01-11T08:38:35.755Z,2.50
2023-01-11T08:41:03.856Z,3.22
2023-01-11T08:43:31.585Z,3.13
2023-01-11T08:45:58.948Z,2.72
2023-01-11T08:48:26.576Z,2.65
2023-01-11T08:50:54.501Z,2.80
2023-01-11T08:53:22.211Z,2.83
2023-01-11T08:55:50.585Z,2.15
2023-01-11T08:58:20.637Z,2.40
2023-01-11T09:00:48.906Z,2.28
2023-01-11T09:03:16.579Z,2.20
2023-01-11T09:05:43.846Z,2.22
2023-01-11T09:08:11.647Z,2.40
2023-01-11T09:10:39.032Z,2.10
2023-01-11T09:13:06.708Z,2.22
2023-01-11T09:15:34.091Z,2.40
2023-01-11T09:18:01.719Z,3.75
2023-01-11T09:24:00.999Z,6.50
2023-01-11T09:26:29.174Z,3.08
2023-01-11T09:28:56.584Z,2.50
2023-01-11T09:31:24.617Z,2.20
2023-01-11T09:33:52.080Z,2.30
2023-01-11T09:36:19.803Z,2.00
2023-01-11T09:38:48.072Z,2.30
2023-01-11T09:41:28.197Z,2.47
2023-01-11T09:44:07.250Z,2.85
2023-01-11T09:46:35.999Z,2.75
2023-01-11T09:49:03.314Z,2.13
2023-01-11T09:51:33.804Z,2.50
2023-01-11T09:54:02.123Z,3.60
2023-01-11T09:56:38.892Z,3.53
2023-01-11T09:59:15.247Z,4.20
2023-01-11T10:02:05.971Z,4.30
2023-01-11T10:04:52.242Z,3.45
2023-01-11T10:07:41.377Z,3.83
2023-01-11T10:18:32.894Z,4.28
2023-01-11T10:19:24.639Z,3.83
2023-01-11T10:21:50.969Z,3.40
2023-01-11T10:24:22.204Z,3.58
2023-01-11T10:26:50.582Z,3.72
2023-01-11T10:29:36.766Z,3.50
2023-01-11T10:32:04.262Z,3.72
2023-01-11T10:34:38.351Z,2.63
2023-01-11T10:37:08.660Z,2.72
2023-01-11T10:39:39.607Z,2.95
2023-01-11T10:42:23.208Z,2.38
2023-01-11T10:44:55.723Z,2.67
2023-01-11T10:49:50.514Z,2.63
2023-01-11T10:52:22.691Z,2.30
2023-01-11T10:54:50.384Z,2.60
2023-01-11T10:57:36.926Z,2.50
2023-01-11T11:00:18.733Z,2.95
2023-01-11T11:02:46.983Z,2.72
2023-01-11T11:05:20.568Z,2.78
2023-01-11T11:08:06.486Z,2.53
2023-01-11T11:10:43.076Z,3.40
2023-01-11T11:13:23.485Z,3.55
2023-01-11T11:15:59.779Z,3.08
2023-01-11T11:18:27.428Z,2.97
2023-01-11T11:21:00.490Z,3.28
2023-01-11T11:23:28.332Z,2.75
2023-01-11T11:25:57.318Z,3.60
2023-01-11T11:28:26.615Z,2.60
2023-01-11T11:30:55.702Z,2.88
2023-01-11T11:33:31.688Z,2.05
2023-01-11T11:36:01.078Z,1.92
2023-01-11T11:38:30.360Z,1.88
2023-01-11T11:41:04.064Z,1.50
2023-01-11T11:43:32.449Z,1.85
2023-01-11T11:46:23.094Z,2.20
2023-01-11T11:49:08.882Z,1.42
2023-01-11T11:51:36.778Z,1.90
2023-01-11T11:54:04.250Z,1.80
2023-01-11T11:56:35.225Z,2.13
2023-01-11T11:59:07.082Z,2.50
2023-01-11T12:04:03.893Z,2.33
2023-01-11T12:06:31.516Z,1.60
2023-01-11T12:09:00.686Z,1.98
2023-01-11T12:11:32.805Z,1.50
2023-01-11T12:14:16.903Z,1.52
2023-01-11T12:16:45.418Z,2.30
2023-01-11T12:19:24.822Z,1.52
2023-01-11T12:21:52.680Z,1.55
2023-01-11T12:24:20.146Z,1.70
2023-01-11T12:27:06.499Z,1.50
2023-01-11T12:29:33.904Z,1.35
2023-01-11T12:32:07.700Z,1.60
2023-01-11T12:34:41.099Z,1.73
2023-01-11T12:37:08.719Z,2.00
2023-01-11T12:40:08.269Z,1.40
2023-01-11T12:42:35.935Z,1.60
2023-01-11T12:45:09.342Z,1.63
2023-01-11T12:47:49.294Z,1.67
2023-01-11T12:50:21.050Z,1.75
2023-01-11T12:53:07.753Z,1.70
2023-01-11T12:55:35.129Z,1.88
2023-01-11T12:58:08.767Z,1.58
2023-01-11T13:00:54.502Z,1.80
2023-01-11T13:03:25.184Z,1.50
2023-01-11T13:05:59.024Z,1.52
2023-01-11T13:08:26.606Z,2.00
2023-01-11T13:10:56.704Z,1.63
2023-01-11T13:13:33.416Z,1.58
2023-01-11T13:16:02.821Z,1.98
2023-01-11T13:18:42.478Z,1.85
2023-01-11T13:21:16.594Z,1.52
2023-01-11T13:23:52.241Z,2.33
2023-01-11T13:26:27.948Z,1.92
2023-01-11T13:29:14.481Z,1.80
2023-01-11T13:31:42.543Z,2.00
2023-01-11T13:34:22.685Z,2.10
2023-01-11T13:36:55.617Z,2.42
2023-01-11T13:39:28.752Z,1.70
2023-01-11T13:41:57.947Z,1.95
2023-01-11T13:44:30.327Z,1.98
2023-01-11T13:47:20.729Z,1.80
2023-01-11T13:49:48.387Z,1.75
2023-01-11T13:52:17.942Z,1.80
2023-01-11T13:54:50.431Z,2.15
2023-01-11T13:57:43.741Z,2.38
2023-01-11T14:00:26.515Z,2.97
2023-01-11T14:03:03.268Z,2.60
2023-01-11T14:05:39.793Z,2.40
2023-01-11T14:08:07.168Z,2.08
2023-01-11T14:10:51.891Z,1.83
2023-01-11T14:13:37.698Z,1.92
2023-01-11T14:16:10.940Z,1.70
2023-01-11T14:19:01.320Z,1.60
2023-01-11T14:21:39.576Z,2.00
2023-01-11T14:24:07.518Z,2.67
2023-01-11T14:26:53.204Z,2.80
2023-01-11T14:29:29.547Z,3.15
2023-01-11T14:32:13.605Z,2.78
2023-01-11T14:34:57.942Z,2.70
2023-01-11T14:37:25.553Z,3.15
2023-01-11T14:40:11.585Z,2.53
2023-01-11T14:42:57.995Z,3.08
2023-01-11T14:45:43.463Z,3.00
2023-01-11T14:48:29.567Z,2.20
2023-01-11T14:51:15.396Z,3.20
2023-01-11T14:53:47.176Z,3.33
2023-01-11T14:56:33.099Z,2.80
2023-01-11T14:59:01.969Z,3.10
2023-01-11T15:01:29.367Z,3.13
2023-01-11T15:03:57.105Z,3.03
2023-01-11T15:06:24.465Z,3.90
2023-01-11T15:08:54.063Z,3.38
2023-01-11T15:11:23.273Z,3.70
2023-01-11T15:13:56.672Z,4.32
2023-01-11T15:16:26.643Z,3.45
2023-01-11T15:18:54.875Z,2.72
2023-01-11T15:21:23.985Z,2.90
2023-01-11T15:23:56.476Z,3.30
2023-01-11T15:26:24.807Z,3.20
2023-01-11T15:29:02.246Z,3.90
2023-01-11T15:31:34.028Z,3.67
2023-01-11T15:36:51.911Z,4.68
2023-01-11T15:39:23.071Z,4.40
2023-01-11T15:42:13.268Z,6.03
2023-01-11T15:44:59.475Z,7.55
2023-01-11T15:47:35.711Z,7.35
2023-01-11T15:50:27.612Z,6.82
2023-01-11T15:53:03.908Z,6.22
2023-01-11T15:55:31.635Z,6.00
2023-01-11T15:57:58.980Z,6.97
2023-01-11T16:00:45.268Z,5.75
2023-01-11T16:03:21.801Z,5.18
2023-01-11T16:06:12.427Z,4.45
2023-01-11T16:08:53.120Z,3.47
2023-01-11T16:11:30.965Z,4.10
2023-01-11T16:13:58.324Z,3.70
2023-01-11T16:16:44.552Z,3.85
2023-01-11T16:19:22.075Z,3.22
2023-01-11T16:21:54.198Z,3.10
2023-01-11T16:24:24.001Z,3.50
2023-01-11T16:27:01.196Z,3.10
2023-01-11T16:29:32.529Z,3.10
2023-01-11T16:32:01.902Z,3.35
2023-01-11T16:34:30.485Z,4.22
2023-01-11T16:36:58.064Z,3.40
2023-01-11T16:39:27.203Z,3.90
2023-01-11T16:41:57.566Z,3.72
2023-01-11T16:44:33.753Z,3.90
2023-01-11T16:47:04.178Z,4.30
2023-01-11T16:49:31.541Z,5.15
2023-01-11T16:51:59.174Z,3.67
2023-01-11T16:54:28.500Z,3.67
2023-01-11T16:56:57.113Z,4.53
2023-01-11T16:59:30.510Z,5.50
2023-01-11T17:01:59.540Z,6.35
2023-01-11T17:04:28.579Z,6.43
2023-01-11T17:06:56.850Z,3.85
2023-01-11T17:09:24.298Z,2.85
2023-01-11T17:11:52.057Z,4.10
2023-01-11T17:14:26.679Z,3.22
2023-01-11T17:16:59.965Z,2.97
2023-01-11T17:19:29.872Z,3.03
2023-01-11T17:22:01.485Z,3.80
2023-01-11T17:24:29.430Z,3.90
2023-01-11T17:26:58.765Z,3.28
2023-01-11T17:29:38.121Z,3.90
2023-01-11T17:32:11.773Z,3.10
2023-01-11T17:34:39.160Z,3.35
2023-01-11T17:37:08.156Z,2.47
2023-01-11T17:39:36.833Z,3.20
2023-01-11T17:42:08.249Z,3.47
2023-01-11T17:44:39.711Z,3.92
2023-01-11T17:47:11.401Z,3.55
2023-01-11T17:49:39.359Z,3.50
2023-01-11T17:52:34.330Z,3.55
2023-01-11T17:55:01.703Z,3.28
2023-01-11T17:57:30.513Z,3.38
2023-01-11T18:00:16.411Z,3.15
2023-01-11T18:02:45.190Z,2.67
2023-01-11T18:05:17.521Z,3.47
2023-01-11T18:11:21.877Z,2.92
2023-01-11T18:13:53.462Z,2.78
2023-01-11T18:16:21.828Z,2.85
2023-01-11T18:18:52.655Z,3.05
2023-01-11T18:21:26.035Z,3.05
2023-01-11T18:24:09.129Z,3.05
2023-01-11T18:26:39.870Z,3.33
2023-01-11T18:29:20.595Z,3.72
2023-01-11T18:31:51.285Z,4.07
2023-01-11T18:34:19.233Z,3.45
2023-01-11T18:36:46.753Z,3.70
2023-01-11T18:39:14.493Z,3.63
2023-01-11T18:41:44.532Z,3.47
2023-01-11T18:44:12.663Z,4.20
2023-01-11T18:46:40.189Z,4.20
2023-01-11T18:49:07.986Z,4.75
2023-01-11T18:51:36.545Z,10.52
2023-01-11T18:54:04.620Z,4.95
2023-01-11T18:56:32.158Z,5.22
2023-01-11T18:58:59.909Z,5.60
2023-01-11T19:01:27.463Z,4.43
2023-01-11T19:03:55.221Z,4.47
2023-01-11T19:06:22.585Z,4.72
2023-01-11T19:08:50.182Z,4.13
2023-01-11T19:11:17.659Z,4.63
2023-01-11T19:13:46.809Z,4.85
2023-01-11T19:16:17.835Z,4.88
2023-01-11T19:18:45.646Z,5.30
2023-01-11T19:21:13.066Z,4.78
2023-01-11T19:23:41.307Z,6.63
2023-01-11T19:26:08.796Z,5.55
2023-01-11T19:28:36.775Z,5.05
2023-01-11T19:31:08.282Z,4.95
2023-01-11T19:33:35.926Z,4.72
2023-01-11T19:36:06.866Z,5.35
2023-01-11T19:38:34.527Z,5.55
2023-01-11T19:41:06.185Z,7.88
2023-01-11T19:43:37.499Z,4.93
2023-01-11T19:46:05.204Z,5.60
2023-01-11T19:48:33.220Z,5.00
2023-01-11T19:51:04.989Z,5.63
2023-01-11T19:53:37.300Z,5.30
2023-01-11T19:56:06.131Z,5.20
2023-01-11T19:58:36.073Z,4.57
2023-01-11T20:01:10.723Z,5.93
2023-01-11T20:03:38.676Z,5.50
2023-01-11T20:06:06.702Z,6.10
2023-01-11T20:08:35.577Z,6.00
2023-01-11T20:11:07.243Z,5.30
2023-01-11T20:13:35.296Z,4.65
2023-01-11T20:16:06.832Z,4.78
2023-01-11T20:18:34.546Z,5.15
2023-01-11T20:21:02.398Z,4.65
2023-01-11T20:23:31.127Z,5.25
2023-01-11T20:25:59.114Z,5.15
2023-01-11T20:28:27.344Z,4.68
2023-01-11T20:30:55.190Z,5.80
2023-01-11T20:33:23.121Z,5.70
2023-01-11T20:35:50.753Z,7.47
2023-01-11T20:38:19.261Z,5.85
2023-01-11T20:40:49.919Z,6.40
2023-01-11T20:43:17.762Z,5.05
2023-01-11T20:45:54.722Z,5.35
2023-01-11T20:48:22.678Z,8.98
2023-01-11T20:50:50.079Z,4.85
2023-01-11T20:53:18.018Z,5.40
2023-01-11T20:55:45.673Z,5.28
2023-01-11T20:58:13.536Z,5.25
2023-01-11T21:00:41.046Z,4.75
2023-01-11T21:03:08.928Z,5.05
2023-01-11T21:05:39.283Z,5.22
2023-01-11T21:08:06.941Z,4.78
2023-01-11T21:10:34.460Z,5.60
2023-01-11T21:13:02.265Z,5.03
2023-01-11T21:15:29.782Z,5.65
2023-01-11T21:17:57.739Z,5.72
2023-01-11T21:20:25.261Z,5.53
2023-01-11T21:22:52.964Z,5.90
2023-01-11T21:25:20.518Z,5.90
2023-01-11T21:27:48.686Z,6.03
2023-01-11T21:30:16.220Z,6.03
2023-01-11T21:32:43.935Z,5.63
2023-01-11T21:35:11.256Z,5.75
2023-01-11T21:37:39.419Z,6.10
2023-01-11T21:40:07.132Z,5.18
2023-01-11T21:42:34.829Z,5.57
2023-01-11T21:45:02.196Z,5.38
2023-01-11T21:47:30.595Z,5.18
2023-01-11T21:49:58.562Z,5.53
2023-01-11T21:52:29.302Z,5.53
2023-01-11T21:54:56.627Z,5.82
2023-01-11T21:57:24.267Z,4.97
2023-01-11T21:59:51.811Z,5.45
2023-01-11T22:02:19.762Z,5.38
2023-01-11T22:05:01.940Z,5.65
2023-01-11T22:10:04.928Z,5.85
2023-01-11T22:13:14.427Z,5.57
2023-01-11T22:15:44.859Z,5.25
2023-01-11T22:18:13.878Z,5.75
2023-01-11T22:20:41.430Z,6.32
2023-01-11T22:23:09.048Z,5.97
2023-01-11T22:25:36.456Z,6.40
2023-01-11T22:28:04.150Z,6.28
2023-01-11T22:30:31.449Z,6.47
2023-01-11T22:33:18.231Z,7.25
2023-01-11T22:35:53.687Z,7.60
2023-01-11T22:38:21.362Z,6.97
2023-01-11T22:40:48.686Z,6.40
2023-01-11T22:43:16.317Z,7.22
2023-01-11T22:45:43.725Z,7.25
2023-01-11T22:48:11.374Z,7.75
2023-01-11T22:50:38.748Z,7.25
2023-01-11T22:53:06.470Z,7.88
2023-01-11T22:55:33.792Z,8.48
2023-01-11T22:58:01.543Z,8.18
2023-01-11T23:00:28.822Z,6.95
2023-01-11T23:02:56.728Z,8.70
2023-01-11T23:05:24.195Z,8.80
2023-01-11T23:07:54.491Z,6.70
2023-01-11T23:10:21.832Z,6.47
2023-01-11T23:12:49.514Z,8.15
2023-01-11T23:15:16.959Z,6.85
2023-01-11T23:17:46.299Z,6.68
2023-01-11T23:20:13.913Z,6.70
2023-01-11T23:22:41.556Z,5.60
2023-01-11T23:25:09.282Z,5.93
2023-01-11T23:27:36.958Z,6.43
2023-01-11T23:30:04.512Z,6.28
2023-01-11T23:32:33.134Z,6.25
2023-01-11T23:35:02.838Z,5.80
2023-01-11T23:37:35.673Z,6.88
2023-01-11T23:40:03.044Z,6.72
2023-01-11T23:42:30.768Z,6.40
2023-01-11T23:44:58.119Z,6.38
2023-01-11T23:47:25.836Z,6.53
2023-01-11T23:49:54.246Z,5.72
2023-01-11T23:52:31.644Z,5.72
2023-01-11T23:54:59.383Z,5.63
2023-01-11T23:57:27.209Z,5.53
2023-01-11T23:59:54.650Z,6.47
